createdAt,value
2019-01-26T00:00:42.096Z,43.47
2019-01-26T00:03:10.786Z,39.60
2019-01-26T00:05:39.349Z,37.97
2019-01-26T00:08:07.850Z,39.47
2019-01-26T00:10:36.239Z,35.60
2019-01-26T00:13:04.646Z,36.13
2019-01-26T00:15:33.162Z,30.50
2019-01-26T00:18:01.539Z,38.33
2019-01-26T00:20:30.030Z,36.13
2019-01-26T00:22:58.418Z,32.70
2019-01-26T00:25:26.834Z,30.47
2019-01-26T00:27:55.236Z,31.87
2019-01-26T00:30:23.660Z,34.20
2019-01-26T00:32:52.059Z,30.73
2019-01-26T00:35:20.560Z,27.03
2019-01-26T00:37:49.095Z,31.50
2019-01-26T00:40:17.763Z,28.90
2019-01-26T00:42:46.180Z,29.17
2019-01-26T00:45:14.580Z,24.10
2019-01-26T00:47:43.003Z,29.10
2019-01-26T00:50:12.939Z,27.00
2019-01-26T00:52:41.431Z,25.97
2019-01-26T00:55:10.262Z,26.73
2019-01-26T00:57:38.697Z,26.13
2019-01-26T01:00:18.289Z,25.80
2019-01-26T01:02:46.850Z,23.93
2019-01-26T01:05:15.320Z,24.73
2019-01-26T01:07:43.766Z,24.80
2019-01-26T01:10:19.644Z,30.30
2019-01-26T01:12:48.144Z,27.50
2019-01-26T01:15:21.346Z,28.17
2019-01-26T01:17:49.735Z,25.63
2019-01-26T01:20:18.297Z,27.57
2019-01-26T01:22:46.688Z,25.53
2019-01-26T01:25:15.117Z,28.13
2019-01-26T01:27:43.495Z,27.43
2019-01-26T01:30:25.524Z,29.70
2019-01-26T01:32:52.313Z,27.53
2019-01-26T01:35:20.737Z,28.57
2019-01-26T01:37:49.132Z,28.70
2019-01-26T01:40:17.727Z,27.63
2019-01-26T01:42:46.176Z,25.73
2019-01-26T01:45:20.381Z,24.53
2019-01-26T01:47:48.797Z,28.87
2019-01-26T01:50:17.279Z,27.07
2019-01-26T01:52:45.661Z,25.83
2019-01-26T01:55:14.204Z,30.20
2019-01-26T01:57:42.647Z,26.03
2019-01-26T02:00:14.474Z,28.13
2019-01-26T02:02:42.903Z,23.43
2019-01-26T02:05:11.282Z,27.60
2019-01-26T02:07:39.710Z,25.67
2019-01-26T02:10:11.239Z,29.27
2019-01-26T02:12:39.655Z,24.37
2019-01-26T02:15:10.083Z,24.80
2019-01-26T02:17:38.503Z,24.53
2019-01-26T02:20:10.227Z,24.00
2019-01-26T02:22:38.616Z,23.90
2019-01-26T02:25:17.952Z,24.23
2019-01-26T02:27:53.736Z,21.13
2019-01-26T02:30:23.139Z,22.33
2019-01-26T02:32:51.556Z,24.87
2019-01-26T02:35:20.014Z,24.03
2019-01-26T02:37:48.400Z,20.63
2019-01-26T02:40:17.889Z,24.57
2019-01-26T02:42:46.270Z,22.70
2019-01-26T02:45:15.903Z,23.07
2019-01-26T02:47:53.372Z,24.33
2019-01-26T02:50:21.762Z,23.10
2019-01-26T02:52:50.174Z,20.37
2019-01-26T02:55:19.582Z,21.87
2019-01-26T02:57:48.042Z,17.37
2019-01-26T03:00:19.129Z,21.93
2019-01-26T03:02:47.523Z,20.20
2019-01-26T03:05:18.224Z,20.27
2019-01-26T03:07:46.752Z,21.07
2019-01-26T03:10:17.804Z,17.93
2019-01-26T03:12:46.208Z,20.03
2019-01-26T03:15:17.600Z,19.37
2019-01-26T03:17:46.016Z,17.60
2019-01-26T03:20:15.941Z,18.77
2019-01-26T03:22:44.368Z,19.23
2019-01-26T03:25:14.491Z,20.47
2019-01-26T03:27:42.912Z,18.17
2019-01-26T03:30:17.107Z,15.87
2019-01-26T03:32:45.481Z,16.80
2019-01-26T03:35:13.900Z,17.73
2019-01-26T03:37:42.288Z,19.60
2019-01-26T03:40:14.081Z,21.00
2019-01-26T03:42:42.452Z,14.27
2019-01-26T03:45:13.179Z,19.13
2019-01-26T03:47:41.595Z,18.43
2019-01-26T03:50:11.720Z,18.57
2019-01-26T03:52:40.142Z,18.93
2019-01-26T03:55:11.423Z,16.03
2019-01-26T03:57:39.807Z,16.70
2019-01-26T04:00:14.162Z,16.60
2019-01-26T04:02:42.544Z,18.67
2019-01-26T04:05:10.971Z,16.50
2019-01-26T04:07:39.356Z,18.00
2019-01-26T04:10:10.112Z,18.30
2019-01-26T04:12:38.500Z,18.47
2019-01-26T04:15:12.238Z,17.00
2019-01-26T04:17:40.622Z,19.80
2019-01-26T04:20:11.739Z,19.10
2019-01-26T04:22:40.150Z,21.60
2019-01-26T04:25:08.530Z,22.60
2019-01-26T04:27:36.947Z,17.33
2019-01-26T04:30:11.562Z,19.57
2019-01-26T04:32:39.984Z,20.60
2019-01-26T04:35:09.904Z,19.83
2019-01-26T04:37:38.280Z,17.23
2019-01-26T04:40:12.066Z,21.10
2019-01-26T04:42:40.483Z,20.73
2019-01-26T04:45:11.863Z,20.20
2019-01-26T04:47:40.245Z,20.30
2019-01-26T04:50:11.590Z,21.27
2019-01-26T04:52:39.967Z,18.20
2019-01-26T04:55:08.381Z,24.37
2019-01-26T04:57:36.763Z,22.83
2019-01-26T05:00:08.432Z,23.97
2019-01-26T05:02:36.811Z,24.63
2019-01-26T05:05:05.278Z,21.77
2019-01-26T05:07:33.687Z,21.57
2019-01-26T05:10:02.074Z,24.30
2019-01-26T05:12:30.483Z,27.10
2019-01-26T05:14:58.862Z,23.87
2019-01-26T05:17:27.278Z,23.17
2019-01-26T05:19:55.666Z,25.50
2019-01-26T05:22:24.050Z,26.13
2019-01-26T05:24:52.466Z,22.53
2019-01-26T05:27:20.927Z,25.63
2019-01-26T05:29:49.347Z,22.30
2019-01-26T05:32:17.726Z,27.13
2019-01-26T05:34:46.143Z,24.97
2019-01-26T05:37:14.532Z,23.53
2019-01-26T05:39:42.914Z,26.60
2019-01-26T05:42:11.330Z,24.77
2019-01-26T05:44:39.715Z,28.47
2019-01-26T05:47:08.130Z,24.50
2019-01-26T05:49:36.510Z,22.20
2019-01-26T05:52:04.927Z,25.93
2019-01-26T05:54:33.311Z,24.17
2019-01-26T05:57:01.689Z,22.57
2019-01-26T05:59:30.106Z,26.27
2019-01-26T06:01:58.491Z,24.30
2019-01-26T06:04:26.913Z,25.17
2019-01-26T06:06:55.297Z,25.70
2019-01-26T06:09:23.701Z,23.83
2019-01-26T06:11:52.151Z,23.90
2019-01-26T06:14:20.567Z,23.53
2019-01-26T06:16:49.423Z,23.00
2019-01-26T06:19:17.805Z,22.57
2019-01-26T06:21:46.993Z,24.53
2019-01-26T06:24:15.405Z,21.47
2019-01-26T06:26:44.856Z,22.30
2019-01-26T06:29:13.265Z,23.87
2019-01-26T06:31:41.679Z,23.40
2019-01-26T06:34:10.075Z,21.23
2019-01-26T06:36:38.475Z,20.67
2019-01-26T06:39:07.362Z,23.67
2019-01-26T06:41:35.783Z,24.23
2019-01-26T06:44:04.174Z,23.70
2019-01-26T06:46:32.580Z,20.57
2019-01-26T06:49:01.775Z,23.77
2019-01-26T06:51:30.163Z,22.90
2019-01-26T06:53:58.587Z,20.17
2019-01-26T06:56:26.974Z,20.43
2019-01-26T06:58:55.377Z,23.67
2019-01-26T07:01:23.762Z,21.63
2019-01-26T07:03:52.253Z,20.40
2019-01-26T07:06:22.292Z,19.87
2019-01-26T07:08:50.736Z,22.40
2019-01-26T07:11:19.151Z,23.43
2019-01-26T07:13:47.537Z,23.47
2019-01-26T07:16:17.590Z,22.40
2019-01-26T07:18:45.979Z,24.37
2019-01-26T07:21:14.390Z,22.80
2019-01-26T07:23:42.769Z,24.33
2019-01-26T07:26:11.198Z,26.30
2019-01-26T07:28:39.584Z,27.60
2019-01-26T07:31:07.980Z,25.23
2019-01-26T07:33:36.403Z,30.47
2019-01-26T07:36:04.790Z,25.80
2019-01-26T07:38:33.299Z,29.73
2019-01-26T07:41:01.682Z,34.57
2019-01-26T07:43:30.112Z,32.87
2019-01-26T07:45:58.578Z,26.53
2019-01-26T07:48:26.993Z,25.10
2019-01-26T07:50:55.386Z,24.80
2019-01-26T07:53:23.822Z,27.87
2019-01-26T07:55:52.287Z,25.07
2019-01-26T07:58:20.675Z,26.87
2019-01-26T08:00:49.100Z,25.00
2019-01-26T08:03:17.492Z,22.13
2019-01-26T08:11:33.882Z,21.07
2019-01-26T08:17:25.711Z,26.33
2019-01-26T08:22:43.642Z,20.67
2019-01-26T08:25:14.905Z,21.77
2019-01-26T08:33:54.573Z,19.83
2019-01-26T08:36:34.898Z,22.70
2019-01-26T08:39:10.425Z,21.07
2019-01-26T08:51:10.957Z,19.27
2019-01-26T08:53:47.271Z,36.83
2019-01-26T08:56:19.143Z,19.27
2019-01-26T08:58:53.191Z,21.37
2019-01-26T09:01:21.839Z,17.33
2019-01-26T09:03:58.377Z,18.50
2019-01-26T09:06:31.432Z,19.60
2019-01-26T09:09:02.162Z,18.77
2019-01-26T09:11:32.294Z,19.70
2019-01-26T09:14:09.983Z,16.97
2019-01-26T09:20:22.853Z,18.00
2019-01-26T09:22:53.089Z,16.53
2019-01-26T09:25:27.045Z,16.50
2019-01-26T09:27:58.647Z,16.80
2019-01-26T09:30:31.794Z,15.33
2019-01-26T09:33:06.103Z,16.17
2019-01-26T09:35:42.684Z,15.23
2019-01-26T09:38:11.267Z,15.90
2019-01-26T09:40:42.256Z,14.77
2019-01-26T09:43:20.262Z,15.83
2019-01-26T09:45:48.524Z,17.03
2019-01-26T09:48:20.045Z,16.80
2019-01-26T09:50:48.540Z,14.23
2019-01-26T09:53:18.138Z,15.20
2019-01-26T09:55:55.403Z,16.37
2019-01-26T09:58:33.387Z,15.83
2019-01-26T10:01:09.168Z,16.63
2019-01-26T10:03:40.721Z,14.33
2019-01-26T10:06:20.273Z,13.90
2019-01-26T10:09:18.310Z,15.07
2019-01-26T10:11:54.268Z,14.13
2019-01-26T10:14:23.061Z,12.23
2019-01-26T10:16:51.948Z,13.30
2019-01-26T10:19:21.584Z,12.90
2019-01-26T10:21:50.440Z,11.87
2019-01-26T10:24:19.176Z,12.93
2019-01-26T10:26:47.831Z,14.80
2019-01-26T10:29:17.757Z,12.63
2019-01-26T10:31:47.152Z,12.60
2019-01-26T10:34:15.638Z,11.90
2019-01-26T10:36:45.697Z,11.67
2019-01-26T10:39:14.890Z,12.37
2019-01-26T10:41:44.933Z,12.80
2019-01-26T10:44:15.147Z,13.00
2019-01-26T10:46:43.545Z,10.40
2019-01-26T10:49:11.967Z,10.57
2019-01-26T10:51:40.350Z,12.93
2019-01-26T10:54:08.836Z,9.97
2019-01-26T10:56:37.879Z,12.80
2019-01-26T10:59:06.315Z,12.20
2019-01-26T11:01:34.698Z,15.03
2019-01-26T11:04:03.130Z,10.30
2019-01-26T11:06:31.600Z,10.40
2019-01-26T11:09:00.024Z,10.73
2019-01-26T11:11:28.407Z,11.10
2019-01-26T11:13:57.021Z,10.10
2019-01-26T11:16:25.470Z,9.87
2019-01-26T11:18:53.926Z,11.37
2019-01-26T11:21:25.405Z,12.27
2019-01-26T11:23:59.305Z,10.87
2019-01-26T11:26:31.739Z,9.93
2019-01-26T11:29:01.187Z,11.37
2019-01-26T11:31:29.990Z,10.20
2019-01-26T11:33:58.883Z,10.60
2019-01-26T11:36:27.506Z,11.73
2019-01-26T11:38:56.090Z,10.23
2019-01-26T11:41:25.577Z,10.20
2019-01-26T11:43:55.027Z,10.87
2019-01-26T11:46:25.282Z,11.47
2019-01-26T11:48:53.757Z,14.70
2019-01-26T11:51:23.953Z,13.40
2019-01-26T11:53:52.936Z,11.40
2019-01-26T11:56:36.164Z,11.70
2019-01-26T11:59:06.473Z,12.77
2019-01-26T12:01:47.629Z,12.27
2019-01-26T12:12:37.378Z,9.97
2019-01-26T12:15:29.296Z,35.47
2019-01-26T12:20:50.492Z,15.27
2019-01-26T12:23:22.969Z,14.57
2019-01-26T12:25:52.133Z,14.07
2019-01-26T12:28:26.568Z,11.10
2019-01-26T12:30:59.164Z,11.57
2019-01-26T12:33:27.731Z,11.70
2019-01-26T12:35:56.308Z,11.37
2019-01-26T12:38:25.078Z,11.23
2019-01-26T12:41:05.525Z,12.30
2019-01-26T12:43:36.526Z,10.47
2019-01-26T12:46:06.782Z,10.97
2019-01-26T12:48:36.529Z,16.37
2019-01-26T12:51:08.841Z,11.43
2019-01-26T12:53:39.027Z,10.67
2019-01-26T12:56:12.552Z,11.03
2019-01-26T12:58:42.732Z,10.30
2019-01-26T13:01:12.937Z,11.77
2019-01-26T13:03:51.741Z,12.20
2019-01-26T13:06:20.497Z,9.97
2019-01-26T13:08:49.278Z,10.27
2019-01-26T13:11:20.748Z,8.50
2019-01-26T13:13:51.996Z,10.63
2019-01-26T13:16:21.067Z,9.10
2019-01-26T13:18:50.944Z,9.80
2019-01-26T13:21:21.810Z,10.97
2019-01-26T13:23:51.198Z,9.43
2019-01-26T13:26:19.856Z,10.43
2019-01-26T13:28:48.885Z,10.97
2019-01-26T13:31:17.606Z,10.00
2019-01-26T13:33:46.196Z,11.10
2019-01-26T13:36:15.085Z,10.23
2019-01-26T13:38:43.737Z,10.17
2019-01-26T13:41:12.417Z,10.73
2019-01-26T13:43:40.956Z,11.13
2019-01-26T13:46:09.624Z,10.97
2019-01-26T13:48:39.365Z,10.77
2019-01-26T13:51:12.954Z,10.30
2019-01-26T13:53:39.990Z,9.90
2019-01-26T13:56:21.706Z,8.50
2019-01-26T14:01:29.977Z,10.13
2019-01-26T14:04:10.297Z,9.07
2019-01-26T14:06:39.175Z,9.47
2019-01-26T14:09:08.689Z,9.10
2019-01-26T14:11:38.406Z,9.37
2019-01-26T14:14:08.730Z,8.23
2019-01-26T14:16:38.343Z,8.10
2019-01-26T14:19:15.032Z,10.47
2019-01-26T14:21:43.994Z,9.20
2019-01-26T14:24:12.637Z,8.90
2019-01-26T14:26:42.293Z,9.97
2019-01-26T14:29:16.126Z,9.77
2019-01-26T14:31:46.804Z,9.43
2019-01-26T14:34:24.716Z,9.57
2019-01-26T14:36:56.060Z,9.83
2019-01-26T14:39:24.742Z,8.97
2019-01-26T14:41:54.146Z,10.27
2019-01-26T14:44:28.538Z,9.43
2019-01-26T14:46:57.905Z,9.57
2019-01-26T14:49:28.554Z,9.63
2019-01-26T14:52:04.287Z,9.80
2019-01-26T14:54:38.277Z,9.67
2019-01-26T14:57:15.475Z,9.20
2019-01-26T14:59:44.064Z,10.77
2019-01-26T15:02:18.046Z,10.47
2019-01-26T15:04:48.754Z,11.13
2019-01-26T15:07:22.167Z,10.93
2019-01-26T15:09:59.155Z,10.57
2019-01-26T15:12:28.330Z,9.47
2019-01-26T15:15:06.654Z,10.33
2019-01-26T15:20:37.959Z,9.53
2019-01-26T15:23:23.066Z,8.97
2019-01-26T15:25:53.519Z,11.80
2019-01-26T15:28:34.573Z,8.60
2019-01-26T15:30:58.043Z,13.77
2019-01-26T15:36:32.617Z,11.30
2019-01-26T15:42:07.659Z,13.80
2019-01-26T15:44:38.140Z,16.37
2019-01-26T15:47:23.259Z,18.03
2019-01-26T15:49:53.313Z,13.10
2019-01-26T15:52:30.278Z,17.53
2019-01-26T15:54:58.440Z,14.23
2019-01-26T16:03:29.202Z,16.10
2019-01-26T16:06:01.741Z,16.30
2019-01-26T16:08:34.525Z,17.27
2019-01-26T16:11:06.061Z,19.40
2019-01-26T16:13:55.363Z,17.50
2019-01-26T16:16:24.908Z,17.63
2019-01-26T16:18:56.869Z,17.70
2019-01-26T16:21:25.854Z,15.43
2019-01-26T16:24:03.979Z,16.77
2019-01-26T16:26:45.077Z,17.47
2019-01-26T16:29:18.010Z,16.60
2019-01-26T16:31:45.684Z,17.53
2019-01-26T16:34:14.485Z,16.50
2019-01-26T16:36:44.313Z,14.33
2019-01-26T16:39:13.432Z,17.80
2019-01-26T16:41:42.063Z,18.07
2019-01-26T16:44:10.848Z,17.30
2019-01-26T16:46:39.530Z,18.77
2019-01-26T16:49:08.281Z,15.07
2019-01-26T16:51:36.988Z,15.93
2019-01-26T16:54:05.706Z,15.90
2019-01-26T16:56:34.415Z,16.70
2019-01-26T16:59:04.058Z,17.37
2019-01-26T17:01:32.769Z,18.33
2019-01-26T17:04:01.863Z,16.40
2019-01-26T17:06:30.599Z,18.83
2019-01-26T17:08:59.323Z,20.70
2019-01-26T17:11:30.717Z,18.37
2019-01-26T17:13:59.707Z,18.70
2019-01-26T17:16:29.327Z,17.07
2019-01-26T17:18:58.065Z,20.47
2019-01-26T17:21:28.994Z,16.87
2019-01-26T17:23:57.479Z,19.80
2019-01-26T17:26:25.899Z,19.63
2019-01-26T17:28:54.297Z,18.83
2019-01-26T17:31:22.675Z,19.77
2019-01-26T17:33:51.138Z,18.70
2019-01-26T17:36:19.523Z,15.87
2019-01-26T17:38:47.907Z,16.20
2019-01-26T17:41:16.334Z,16.27
2019-01-26T17:43:44.788Z,15.03
2019-01-26T17:46:13.203Z,15.93
2019-01-26T17:48:41.591Z,15.23
2019-01-26T17:51:10.018Z,16.00
2019-01-26T17:53:38.399Z,15.70
2019-01-26T17:56:06.783Z,15.77
2019-01-26T17:58:35.203Z,15.43
2019-01-26T18:01:03.663Z,15.40
2019-01-26T18:03:32.039Z,14.30
2019-01-26T18:06:00.454Z,17.37
2019-01-26T18:08:28.903Z,15.30
2019-01-26T18:10:57.284Z,18.17
2019-01-26T18:13:25.702Z,14.20
2019-01-26T18:15:54.090Z,14.93
2019-01-26T18:18:22.580Z,18.37
2019-01-26T18:20:50.980Z,18.23
2019-01-26T18:23:21.013Z,17.13
2019-01-26T18:25:49.704Z,18.77
2019-01-26T18:28:18.086Z,17.93
2019-01-26T18:30:46.578Z,17.33
2019-01-26T18:33:15.201Z,19.03
2019-01-26T18:35:43.717Z,20.13
2019-01-26T18:38:12.111Z,19.87
2019-01-26T18:40:40.542Z,18.53
2019-01-26T18:43:08.940Z,20.77
2019-01-26T18:45:37.331Z,19.73
2019-01-26T18:48:05.750Z,17.53
2019-01-26T18:50:43.045Z,18.97
2019-01-26T18:53:11.468Z,20.10
2019-01-26T18:55:39.875Z,19.20
2019-01-26T18:58:08.379Z,18.57
2019-01-26T19:00:39.617Z,19.10
2019-01-26T19:03:23.229Z,19.37
2019-01-26T19:05:55.080Z,18.60
2019-01-26T19:08:23.477Z,19.00
2019-01-26T19:10:51.895Z,16.33
2019-01-26T19:13:20.489Z,18.60
2019-01-26T19:15:51.820Z,19.00
2019-01-26T19:18:21.147Z,17.57
2019-01-26T19:20:50.812Z,15.53
2019-01-26T19:23:19.323Z,16.53
2019-01-26T19:25:54.936Z,16.50
2019-01-26T19:28:24.920Z,17.50
2019-01-26T19:30:53.528Z,15.30
2019-01-26T19:33:22.116Z,15.00
2019-01-26T19:35:51.904Z,14.97
2019-01-26T19:38:20.399Z,14.80
2019-01-26T19:40:51.469Z,15.90
2019-01-26T19:43:22.673Z,13.77
2019-01-26T19:45:51.183Z,16.30
2019-01-26T19:48:19.863Z,16.67
2019-01-26T19:53:38.182Z,15.63
2019-01-26T19:56:06.594Z,15.37
2019-01-26T19:58:34.989Z,13.00
2019-01-26T20:01:03.384Z,13.23
2019-01-26T20:03:31.823Z,13.97
2019-01-26T20:06:00.226Z,13.03
2019-01-26T20:08:28.644Z,13.07
2019-01-26T20:10:57.030Z,14.13
2019-01-26T20:13:25.465Z,12.53
2019-01-26T20:15:53.916Z,15.20
2019-01-26T20:18:22.349Z,12.77
2019-01-26T20:20:51.730Z,13.37
2019-01-26T20:23:20.174Z,13.30
2019-01-26T20:25:49.725Z,13.47
2019-01-26T20:28:18.258Z,14.37
2019-01-26T20:30:47.102Z,13.43
2019-01-26T20:33:15.537Z,11.77
2019-01-26T20:35:46.647Z,13.30
2019-01-26T20:38:18.686Z,14.23
2019-01-26T20:40:47.240Z,15.10
2019-01-26T20:43:15.778Z,12.67
2019-01-26T20:45:46.782Z,13.23
2019-01-26T20:48:15.365Z,14.57
2019-01-26T20:50:45.279Z,13.70
2019-01-26T20:53:14.483Z,13.20
2019-01-26T20:55:43.539Z,14.40
2019-01-26T20:58:11.965Z,13.17
2019-01-26T21:00:50.200Z,13.57
2019-01-26T21:03:19.779Z,13.37
2019-01-26T21:05:48.237Z,13.40
2019-01-26T21:08:16.578Z,12.77
2019-01-26T21:10:45.003Z,12.97
2019-01-26T21:13:16.485Z,13.87
2019-01-26T21:15:43.819Z,13.43
2019-01-26T21:18:12.585Z,14.17
2019-01-26T21:20:41.212Z,14.33
2019-01-26T21:23:09.734Z,12.27
2019-01-26T21:25:38.987Z,12.47
2019-01-26T21:28:08.089Z,11.47
2019-01-26T21:30:36.717Z,13.10
2019-01-26T21:33:05.861Z,11.77
2019-01-26T21:35:34.871Z,12.70
2019-01-26T21:38:03.611Z,13.83
2019-01-26T21:40:32.377Z,11.93
2019-01-26T21:43:03.964Z,11.17
2019-01-26T21:45:32.171Z,11.53
2019-01-26T21:48:02.537Z,10.63
2019-01-26T21:50:31.259Z,12.73
2019-01-26T21:53:03.428Z,10.83
2019-01-26T21:55:34.725Z,9.33
2019-01-26T21:58:03.212Z,9.50
2019-01-26T22:00:32.676Z,11.13
2019-01-26T22:03:01.055Z,8.93
2019-01-26T22:05:29.533Z,9.10
2019-01-26T22:07:57.979Z,9.57
2019-01-26T22:10:28.037Z,11.07
2019-01-26T22:12:56.432Z,8.57
2019-01-26T22:15:25.437Z,10.10
2019-01-26T22:17:53.819Z,9.60
2019-01-26T22:20:24.346Z,9.03
2019-01-26T22:22:54.482Z,9.97
2019-01-26T22:25:23.080Z,11.27
2019-01-26T22:27:53.568Z,11.13
2019-01-26T22:30:30.482Z,12.00
2019-01-26T22:33:03.148Z,12.53
2019-01-26T22:35:31.985Z,11.13
2019-01-26T22:38:03.131Z,12.03
2019-01-26T22:40:33.511Z,13.30
2019-01-26T22:43:01.952Z,10.90
2019-01-26T22:45:30.361Z,11.90
2019-01-26T22:47:58.742Z,13.40
2019-01-26T22:50:28.943Z,10.80
2019-01-26T22:52:57.510Z,12.90
2019-01-26T22:55:25.923Z,11.87
2019-01-26T22:57:54.424Z,10.33
2019-01-26T23:00:39.289Z,13.47
2019-01-26T23:03:10.132Z,11.50
2019-01-26T23:06:01.086Z,10.27
2019-01-26T23:08:45.638Z,13.17
2019-01-26T23:11:19.863Z,10.77
2019-01-26T23:13:57.351Z,11.77
2019-01-26T23:16:41.012Z,12.23
2019-01-26T23:19:24.137Z,14.73
2019-01-26T23:22:21.658Z,12.53
2019-01-26T23:25:02.366Z,12.03
2019-01-26T23:27:45.865Z,12.80
2019-01-26T23:30:40.138Z,13.67
2019-01-26T23:36:38.615Z,14.10
2019-01-26T23:39:08.370Z,12.93
2019-01-26T23:41:36.808Z,11.23
2019-01-26T23:44:05.215Z,12.13
2019-01-26T23:46:33.904Z,11.43
2019-01-26T23:49:03.732Z,13.33
2019-01-26T23:51:32.412Z,10.57
2019-01-26T23:54:01.611Z,11.27
2019-01-26T23:56:30.368Z,11.10
2019-01-26T23:58:59.170Z,12.53
